sensor_id;sensor_type;location;lat;lon;timestamp;P1;durP1;ratioP1;P2;durP2;ratioP2
43114;SDS011;28727;50.068;14.452;2023-02-04T00:00:19;1.38;;;0.60;;
43114;SDS011;28727;50.068;14.452;2023-02-04T00:02:53;2.80;;;0.88;;
43114;SDS011;28727;50.068;14.452;2023-02-04T00:05:25;1.50;;;0.73;;
43114;SDS011;28727;50.068;14.452;2023-02-04T00:07:57;4.82;;;1.00;;
43114;SDS011;28727;50.068;14.452;2023-02-04T00:10:35;2.65;;;0.70;;
43114;SDS011;28727;50.068;14.452;2023-02-04T00:13:09;2.05;;;0.70;;
43114;SDS011;28727;50.068;14.452;2023-02-04T00:15:40;3.30;;;0.88;;
43114;SDS011;28727;50.068;14.452;2023-02-04T00:18:12;3.83;;;1.17;;
43114;SDS011;28727;50.068;14.452;2023-02-04T00:20:44;1.92;;;0.70;;
43114;SDS011;28727;50.068;14.452;2023-02-04T00:23:16;1.42;;;0.60;;
43114;SDS011;28727;50.068;14.452;2023-02-04T00:25:47;1.52;;;0.70;;
43114;SDS011;28727;50.068;14.452;2023-02-04T00:28:22;2.80;;;0.80;;
43114;SDS011;28727;50.068;14.452;2023-02-04T00:30:54;2.72;;;0.60;;
43114;SDS011;28727;50.068;14.452;2023-02-04T00:33:25;1.75;;;0.60;;
43114;SDS011;28727;50.068;14.452;2023-02-04T00:36:00;2.78;;;0.90;;
43114;SDS011;28727;50.068;14.452;2023-02-04T00:38:32;1.67;;;0.65;;
43114;SDS011;28727;50.068;14.452;2023-02-04T00:41:05;1.00;;;0.47;;
43114;SDS011;28727;50.068;14.452;2023-02-04T00:43:37;1.13;;;0.45;;
43114;SDS011;28727;50.068;14.452;2023-02-04T00:46:09;1.40;;;0.60;;
43114;SDS011;28727;50.068;14.452;2023-02-04T00:48:40;1.17;;;0.60;;
43114;SDS011;28727;50.068;14.452;2023-02-04T00:51:12;1.00;;;0.50;;
43114;SDS011;28727;50.068;14.452;2023-02-04T00:53:44;1.27;;;0.63;;
43114;SDS011;28727;50.068;14.452;2023-02-04T00:56:16;1.40;;;0.75;;
43114;SDS011;28727;50.068;14.452;2023-02-04T00:58:48;2.55;;;0.70;;
43114;SDS011;28727;50.068;14.452;2023-02-04T01:01:19;1.67;;;0.40;;
43114;SDS011;28727;50.068;14.452;2023-02-04T01:03:51;0.63;;;0.32;;
43114;SDS011;28727;50.068;14.452;2023-02-04T01:06:23;1.23;;;0.60;;
43114;SDS011;28727;50.068;14.452;2023-02-04T01:08:55;0.50;;;0.30;;
43114;SDS011;28727;50.068;14.452;2023-02-04T01:11:28;1.73;;;0.68;;
43114;SDS011;28727;50.068;14.452;2023-02-04T01:14:01;1.77;;;0.60;;
43114;SDS011;28727;50.068;14.452;2023-02-04T01:16:33;0.32;;;0.28;;
43114;SDS011;28727;50.068;14.452;2023-02-04T01:19:04;0.77;;;0.50;;
43114;SDS011;28727;50.068;14.452;2023-02-04T01:21:37;0.60;;;0.20;;
43114;SDS011;28727;50.068;14.452;2023-02-04T01:24:13;0.52;;;0.43;;
43114;SDS011;28727;50.068;14.452;2023-02-04T01:27:04;0.35;;;0.20;;
43114;SDS011;28727;50.068;14.452;2023-02-04T01:29:36;1.25;;;0.40;;
43114;SDS011;28727;50.068;14.452;2023-02-04T01:32:15;0.65;;;0.40;;
43114;SDS011;28727;50.068;14.452;2023-02-04T01:34:46;0.68;;;0.40;;
43114;SDS011;28727;50.068;14.452;2023-02-04T01:37:18;0.43;;;0.40;;
43114;SDS011;28727;50.068;14.452;2023-02-04T01:39:50;1.15;;;0.50;;
43114;SDS011;28727;50.068;14.452;2023-02-04T01:42:22;0.63;;;0.38;;
43114;SDS011;28727;50.068;14.452;2023-02-04T01:44:54;1.30;;;0.50;;
43114;SDS011;28727;50.068;14.452;2023-02-04T01:47:26;0.98;;;0.30;;
43114;SDS011;28727;50.068;14.452;2023-02-04T01:49:58;1.08;;;0.40;;
43114;SDS011;28727;50.068;14.452;2023-02-04T01:52:33;0.65;;;0.40;;
43114;SDS011;28727;50.068;14.452;2023-02-04T01:55:12;0.50;;;0.40;;
43114;SDS011;28727;50.068;14.452;2023-02-04T01:57:51;2.28;;;0.40;;
43114;SDS011;28727;50.068;14.452;2023-02-04T02:00:24;0.60;;;0.60;;
43114;SDS011;28727;50.068;14.452;2023-02-04T02:03:01;0.70;;;0.70;;
43114;SDS011;28727;50.068;14.452;2023-02-04T02:05:36;1.80;;;0.68;;
43114;SDS011;28727;50.068;14.452;2023-02-04T02:08:11;2.00;;;0.60;;
43114;SDS011;28727;50.068;14.452;2023-02-04T02:10:48;1.58;;;0.60;;
43114;SDS011;28727;50.068;14.452;2023-02-04T02:13:20;0.90;;;0.60;;
43114;SDS011;28727;50.068;14.452;2023-02-04T02:15:55;2.03;;;0.80;;
43114;SDS011;28727;50.068;14.452;2023-02-04T02:18:27;2.28;;;0.75;;
43114;SDS011;28727;50.068;14.452;2023-02-04T02:20:59;0.60;;;0.60;;
43114;SDS011;28727;50.068;14.452;2023-02-04T02:23:50;0.40;;;0.40;;
43114;SDS011;28727;50.068;14.452;2023-02-04T02:26:34;0.93;;;0.70;;
43114;SDS011;28727;50.068;14.452;2023-02-04T02:29:06;1.25;;;0.70;;
43114;SDS011;28727;50.068;14.452;2023-02-04T02:31:38;1.08;;;0.68;;
43114;SDS011;28727;50.068;14.452;2023-02-04T02:34:13;0.88;;;0.70;;
43114;SDS011;28727;50.068;14.452;2023-02-04T02:36:45;0.77;;;0.50;;
43114;SDS011;28727;50.068;14.452;2023-02-04T02:39:16;1.05;;;0.80;;
43114;SDS011;28727;50.068;14.452;2023-02-04T02:41:49;2.53;;;0.80;;
43114;SDS011;28727;50.068;14.452;2023-02-04T02:44:21;1.15;;;0.80;;
43114;SDS011;28727;50.068;14.452;2023-02-04T02:46:54;0.88;;;0.75;;
43114;SDS011;28727;50.068;14.452;2023-02-04T02:49:26;2.03;;;0.90;;
43114;SDS011;28727;50.068;14.452;2023-02-04T02:52:02;1.23;;;0.82;;
43114;SDS011;28727;50.068;14.452;2023-02-04T02:54:34;1.77;;;0.95;;
43114;SDS011;28727;50.068;14.452;2023-02-04T02:57:12;1.40;;;1.10;;
43114;SDS011;28727;50.068;14.452;2023-02-04T02:59:48;2.05;;;0.90;;
43114;SDS011;28727;50.068;14.452;2023-02-04T03:02:21;0.98;;;0.88;;
43114;SDS011;28727;50.068;14.452;2023-02-04T03:04:55;1.30;;;1.00;;
43114;SDS011;28727;50.068;14.452;2023-02-04T03:07:36;1.30;;;0.90;;
43114;SDS011;28727;50.068;14.452;2023-02-04T03:10:08;1.70;;;1.00;;
43114;SDS011;28727;50.068;14.452;2023-02-04T03:12:42;0.82;;;0.65;;
43114;SDS011;28727;50.068;14.452;2023-02-04T03:15:18;1.05;;;0.80;;
43114;SDS011;28727;50.068;14.452;2023-02-04T03:17:51;1.02;;;0.73;;
43114;SDS011;28727;50.068;14.452;2023-02-04T03:20:27;2.65;;;0.88;;
43114;SDS011;28727;50.068;14.452;2023-02-04T03:23:02;1.13;;;0.85;;
43114;SDS011;28727;50.068;14.452;2023-02-04T03:25:34;2.17;;;0.90;;
43114;SDS011;28727;50.068;14.452;2023-02-04T03:30:40;1.35;;;0.80;;
43114;SDS011;28727;50.068;14.452;2023-02-04T03:33:12;1.27;;;0.88;;
43114;SDS011;28727;50.068;14.452;2023-02-04T03:35:44;2.35;;;1.00;;
43114;SDS011;28727;50.068;14.452;2023-02-04T03:38:20;1.45;;;0.88;;
43114;SDS011;28727;50.068;14.452;2023-02-04T03:40:52;2.53;;;1.20;;
43114;SDS011;28727;50.068;14.452;2023-02-04T03:43:24;1.33;;;0.95;;
43114;SDS011;28727;50.068;14.452;2023-02-04T03:45:58;1.33;;;1.10;;
43114;SDS011;28727;50.068;14.452;2023-02-04T03:48:36;4.07;;;1.40;;
43114;SDS011;28727;50.068;14.452;2023-02-04T03:51:11;4.00;;;1.42;;
43114;SDS011;28727;50.068;14.452;2023-02-04T03:56:14;2.25;;;1.50;;
43114;SDS011;28727;50.068;14.452;2023-02-04T03:58:46;2.40;;;1.58;;
43114;SDS011;28727;50.068;14.452;2023-02-04T04:01:20;2.40;;;1.60;;
43114;SDS011;28727;50.068;14.452;2023-02-04T04:03:57;5.00;;;1.50;;
43114;SDS011;28727;50.068;14.452;2023-02-04T04:06:29;2.38;;;1.40;;
43114;SDS011;28727;50.068;14.452;2023-02-04T04:09:08;2.78;;;1.60;;
43114;SDS011;28727;50.068;14.452;2023-02-04T04:11:41;2.03;;;1.55;;
43114;SDS011;28727;50.068;14.452;2023-02-04T04:14:16;1.88;;;1.52;;
43114;SDS011;28727;50.068;14.452;2023-02-04T04:16:48;2.55;;;1.80;;
43114;SDS011;28727;50.068;14.452;2023-02-04T04:19:20;4.20;;;1.95;;
43114;SDS011;28727;50.068;14.452;2023-02-04T04:21:51;2.97;;;2.00;;
43114;SDS011;28727;50.068;14.452;2023-02-04T04:24:23;2.92;;;1.58;;
43114;SDS011;28727;50.068;14.452;2023-02-04T04:26:55;3.17;;;1.90;;
43114;SDS011;28727;50.068;14.452;2023-02-04T04:29:27;4.75;;;2.03;;
43114;SDS011;28727;50.068;14.452;2023-02-04T04:31:58;2.72;;;1.73;;
43114;SDS011;28727;50.068;14.452;2023-02-04T04:34:30;3.15;;;1.80;;
43114;SDS011;28727;50.068;14.452;2023-02-04T04:37:02;3.20;;;2.03;;
43114;SDS011;28727;50.068;14.452;2023-02-04T04:39:34;3.00;;;1.90;;
43114;SDS011;28727;50.068;14.452;2023-02-04T04:42:08;2.60;;;2.10;;
43114;SDS011;28727;50.068;14.452;2023-02-04T04:44:40;3.00;;;2.03;;
43114;SDS011;28727;50.068;14.452;2023-02-04T04:47:12;6.43;;;2.10;;
43114;SDS011;28727;50.068;14.452;2023-02-04T04:49:43;3.25;;;2.20;;
43114;SDS011;28727;50.068;14.452;2023-02-04T04:52:16;3.42;;;2.30;;
43114;SDS011;28727;50.068;14.452;2023-02-04T04:54:48;3.92;;;2.38;;
43114;SDS011;28727;50.068;14.452;2023-02-04T04:57:20;3.17;;;2.28;;
43114;SDS011;28727;50.068;14.452;2023-02-04T04:59:51;3.88;;;2.05;;
43114;SDS011;28727;50.068;14.452;2023-02-04T05:02:23;4.15;;;2.10;;
43114;SDS011;28727;50.068;14.452;2023-02-04T05:04:55;3.58;;;1.88;;
43114;SDS011;28727;50.068;14.452;2023-02-04T05:07:27;2.83;;;1.95;;
43114;SDS011;28727;50.068;14.452;2023-02-04T05:12:36;3.75;;;2.05;;
43114;SDS011;28727;50.068;14.452;2023-02-04T05:15:08;3.05;;;1.90;;
43114;SDS011;28727;50.068;14.452;2023-02-04T05:17:40;2.88;;;1.65;;
43114;SDS011;28727;50.068;14.452;2023-02-04T05:20:18;4.00;;;2.25;;
43114;SDS011;28727;50.068;14.452;2023-02-04T05:22:50;3.83;;;2.03;;
43114;SDS011;28727;50.068;14.452;2023-02-04T05:25:23;3.15;;;2.00;;
43114;SDS011;28727;50.068;14.452;2023-02-04T05:27:55;3.63;;;2.10;;
43114;SDS011;28727;50.068;14.452;2023-02-04T05:30:30;3.03;;;2.03;;
43114;SDS011;28727;50.068;14.452;2023-02-04T05:33:02;2.45;;;1.90;;
43114;SDS011;28727;50.068;14.452;2023-02-04T05:35:37;2.42;;;1.80;;
43114;SDS011;28727;50.068;14.452;2023-02-04T05:38:12;6.05;;;3.17;;
43114;SDS011;28727;50.068;14.452;2023-02-04T05:40:44;4.72;;;2.10;;
43114;SDS011;28727;50.068;14.452;2023-02-04T05:43:21;3.63;;;2.20;;
43114;SDS011;28727;50.068;14.452;2023-02-04T05:45:56;3.65;;;2.30;;
43114;SDS011;28727;50.068;14.452;2023-02-04T05:48:28;3.20;;;1.90;;
43114;SDS011;28727;50.068;14.452;2023-02-04T05:51:00;3.85;;;1.80;;
43114;SDS011;28727;50.068;14.452;2023-02-04T05:53:32;3.38;;;2.00;;
43114;SDS011;28727;50.068;14.452;2023-02-04T05:58:38;3.08;;;2.00;;
43114;SDS011;28727;50.068;14.452;2023-02-04T06:01:10;2.78;;;2.05;;
43114;SDS011;28727;50.068;14.452;2023-02-04T06:03:45;2.75;;;1.73;;
43114;SDS011;28727;50.068;14.452;2023-02-04T06:06:16;3.38;;;1.50;;
43114;SDS011;28727;50.068;14.452;2023-02-04T06:08:48;2.20;;;1.52;;
43114;SDS011;28727;50.068;14.452;2023-02-04T06:11:20;2.38;;;1.58;;
43114;SDS011;28727;50.068;14.452;2023-02-04T06:13:51;2.50;;;1.70;;
43114;SDS011;28727;50.068;14.452;2023-02-04T06:16:23;2.78;;;1.83;;
43114;SDS011;28727;50.068;14.452;2023-02-04T06:18:58;1.73;;;1.40;;
43114;SDS011;28727;50.068;14.452;2023-02-04T06:21:29;2.17;;;1.70;;
43114;SDS011;28727;50.068;14.452;2023-02-04T06:24:02;2.85;;;1.60;;
43114;SDS011;28727;50.068;14.452;2023-02-04T06:26:35;2.30;;;1.50;;
43114;SDS011;28727;50.068;14.452;2023-02-04T06:29:08;3.17;;;1.63;;
43114;SDS011;28727;50.068;14.452;2023-02-04T06:31:40;1.88;;;1.52;;
43114;SDS011;28727;50.068;14.452;2023-02-04T06:34:12;3.03;;;1.80;;
43114;SDS011;28727;50.068;14.452;2023-02-04T06:36:43;2.22;;;1.55;;
43114;SDS011;28727;50.068;14.452;2023-02-04T06:39:18;2.08;;;1.55;;
43114;SDS011;28727;50.068;14.452;2023-02-04T06:41:52;3.22;;;1.77;;
43114;SDS011;28727;50.068;14.452;2023-02-04T06:44:24;4.15;;;1.88;;
43114;SDS011;28727;50.068;14.452;2023-02-04T06:46:57;3.05;;;2.08;;
43114;SDS011;28727;50.068;14.452;2023-02-04T06:49:29;2.47;;;1.73;;
43114;SDS011;28727;50.068;14.452;2023-02-04T06:52:00;2.78;;;1.83;;
43114;SDS011;28727;50.068;14.452;2023-02-04T06:54:33;3.53;;;1.70;;
43114;SDS011;28727;50.068;14.452;2023-02-04T06:57:05;2.25;;;1.40;;
43114;SDS011;28727;50.068;14.452;2023-02-04T06:59:37;2.50;;;1.52;;
43114;SDS011;28727;50.068;14.452;2023-02-04T07:02:10;2.33;;;1.60;;
43114;SDS011;28727;50.068;14.452;2023-02-04T07:04:42;2.70;;;1.83;;
43114;SDS011;28727;50.068;14.452;2023-02-04T07:07:21;2.55;;;1.70;;
43114;SDS011;28727;50.068;14.452;2023-02-04T07:09:53;3.38;;;1.70;;
43114;SDS011;28727;50.068;14.452;2023-02-04T07:12:24;2.42;;;1.55;;
43114;SDS011;28727;50.068;14.452;2023-02-04T07:14:56;1.95;;;1.33;;
43114;SDS011;28727;50.068;14.452;2023-02-04T07:17:29;2.03;;;1.33;;
43114;SDS011;28727;50.068;14.452;2023-02-04T07:20:01;2.55;;;1.60;;
43114;SDS011;28727;50.068;14.452;2023-02-04T07:22:33;2.33;;;1.50;;
43114;SDS011;28727;50.068;14.452;2023-02-04T07:25:10;2.28;;;1.42;;
43114;SDS011;28727;50.068;14.452;2023-02-04T07:27:45;2.30;;;1.40;;
43114;SDS011;28727;50.068;14.452;2023-02-04T07:30:17;2.55;;;1.70;;
43114;SDS011;28727;50.068;14.452;2023-02-04T07:32:51;2.47;;;1.55;;
43114;SDS011;28727;50.068;14.452;2023-02-04T07:35:24;1.90;;;1.27;;
43114;SDS011;28727;50.068;14.452;2023-02-04T07:37:55;3.22;;;1.40;;
43114;SDS011;28727;50.068;14.452;2023-02-04T07:40:27;2.45;;;1.60;;
43114;SDS011;28727;50.068;14.452;2023-02-04T07:42:59;1.73;;;1.50;;
43114;SDS011;28727;50.068;14.452;2023-02-04T07:45:32;2.67;;;1.50;;
43114;SDS011;28727;50.068;14.452;2023-02-04T07:48:05;2.70;;;1.60;;
43114;SDS011;28727;50.068;14.452;2023-02-04T07:50:47;3.17;;;1.40;;
43114;SDS011;28727;50.068;14.452;2023-02-04T07:53:21;2.95;;;1.60;;
43114;SDS011;28727;50.068;14.452;2023-02-04T07:55:53;1.85;;;1.20;;
43114;SDS011;28727;50.068;14.452;2023-02-04T07:58:25;2.80;;;1.50;;
43114;SDS011;28727;50.068;14.452;2023-02-04T08:00:59;3.07;;;1.43;;
43114;SDS011;28727;50.068;14.452;2023-02-04T08:03:31;5.38;;;2.17;;
43114;SDS011;28727;50.068;14.452;2023-02-04T08:06:03;3.42;;;1.92;;
43114;SDS011;28727;50.068;14.452;2023-02-04T08:08:37;4.43;;;2.03;;
43114;SDS011;28727;50.068;14.452;2023-02-04T08:11:09;3.60;;;2.00;;
43114;SDS011;28727;50.068;14.452;2023-02-04T08:13:41;6.22;;;1.98;;
43114;SDS011;28727;50.068;14.452;2023-02-04T08:16:14;4.95;;;2.72;;
43114;SDS011;28727;50.068;14.452;2023-02-04T08:18:46;2.72;;;1.73;;
43114;SDS011;28727;50.068;14.452;2023-02-04T08:21:17;3.05;;;1.60;;
43114;SDS011;28727;50.068;14.452;2023-02-04T08:23:50;2.55;;;1.55;;
43114;SDS011;28727;50.068;14.452;2023-02-04T08:26:24;2.95;;;1.60;;
43114;SDS011;28727;50.068;14.452;2023-02-04T08:28:56;2.47;;;1.25;;
43114;SDS011;28727;50.068;14.452;2023-02-04T08:31:28;2.78;;;1.20;;
43114;SDS011;28727;50.068;14.452;2023-02-04T08:33:59;2.25;;;1.10;;
43114;SDS011;28727;50.068;14.452;2023-02-04T08:36:33;2.15;;;1.27;;
43114;SDS011;28727;50.068;14.452;2023-02-04T08:39:15;2.30;;;1.17;;
43114;SDS011;28727;50.068;14.452;2023-02-04T08:44:22;1.65;;;1.02;;
43114;SDS011;28727;50.068;14.452;2023-02-04T08:46:54;2.00;;;1.33;;
43114;SDS011;28727;50.068;14.452;2023-02-04T08:49:25;1.52;;;1.10;;
43114;SDS011;28727;50.068;14.452;2023-02-04T08:51:58;1.77;;;1.10;;
43114;SDS011;28727;50.068;14.452;2023-02-04T08:54:32;1.85;;;1.13;;
43114;SDS011;28727;50.068;14.452;2023-02-04T08:57:05;4.88;;;1.30;;
43114;SDS011;28727;50.068;14.452;2023-02-04T08:59:38;5.65;;;1.42;;
43114;SDS011;28727;50.068;14.452;2023-02-04T09:02:10;2.60;;;1.20;;
43114;SDS011;28727;50.068;14.452;2023-02-04T09:04:44;2.95;;;1.40;;
43114;SDS011;28727;50.068;14.452;2023-02-04T09:07:16;2.30;;;1.30;;
43114;SDS011;28727;50.068;14.452;2023-02-04T09:09:50;2.03;;;1.33;;
43114;SDS011;28727;50.068;14.452;2023-02-04T09:12:22;4.03;;;1.63;;
43114;SDS011;28727;50.068;14.452;2023-02-04T09:14:56;3.95;;;1.63;;
43114;SDS011;28727;50.068;14.452;2023-02-04T09:20:00;2.13;;;1.20;;
43114;SDS011;28727;50.068;14.452;2023-02-04T09:22:32;3.13;;;1.42;;
43114;SDS011;28727;50.068;14.452;2023-02-04T09:25:03;4.72;;;1.60;;
43114;SDS011;28727;50.068;14.452;2023-02-04T09:27:36;1.52;;;1.00;;
43114;SDS011;28727;50.068;14.452;2023-02-04T09:30:10;7.63;;;1.73;;
43114;SDS011;28727;50.068;14.452;2023-02-04T09:32:42;2.95;;;1.10;;
43114;SDS011;28727;50.068;14.452;2023-02-04T09:35:14;3.10;;;1.33;;
43114;SDS011;28727;50.068;14.452;2023-02-04T09:40:20;3.28;;;1.38;;
43114;SDS011;28727;50.068;14.452;2023-02-04T09:42:52;2.90;;;1.30;;
43114;SDS011;28727;50.068;14.452;2023-02-04T09:45:26;4.88;;;1.30;;
43114;SDS011;28727;50.068;14.452;2023-02-04T09:48:05;2.80;;;1.13;;
43114;SDS011;28727;50.068;14.452;2023-02-04T09:50:43;3.05;;;1.10;;
43114;SDS011;28727;50.068;14.452;2023-02-04T09:53:22;3.17;;;1.23;;
43114;SDS011;28727;50.068;14.452;2023-02-04T09:55:55;2.17;;;1.25;;
43114;SDS011;28727;50.068;14.452;2023-02-04T09:58:28;3.15;;;1.30;;
43114;SDS011;28727;50.068;14.452;2023-02-04T10:01:16;2.33;;;1.20;;
43114;SDS011;28727;50.068;14.452;2023-02-04T10:03:52;2.47;;;1.15;;
43114;SDS011;28727;50.068;14.452;2023-02-04T10:06:30;6.72;;;1.20;;
43114;SDS011;28727;50.068;14.452;2023-02-04T10:09:02;3.17;;;1.38;;
43114;SDS011;28727;50.068;14.452;2023-02-04T10:11:35;3.65;;;1.30;;
43114;SDS011;28727;50.068;14.452;2023-02-04T10:14:11;2.13;;;1.40;;
43114;SDS011;28727;50.068;14.452;2023-02-04T10:16:55;2.30;;;1.20;;
43114;SDS011;28727;50.068;14.452;2023-02-04T10:19:33;5.28;;;1.73;;
43114;SDS011;28727;50.068;14.452;2023-02-04T10:22:09;2.30;;;1.55;;
43114;SDS011;28727;50.068;14.452;2023-02-04T10:24:48;3.28;;;1.40;;
43114;SDS011;28727;50.068;14.452;2023-02-04T10:27:20;2.75;;;1.40;;
43114;SDS011;28727;50.068;14.452;2023-02-04T10:29:54;2.60;;;1.30;;
43114;SDS011;28727;50.068;14.452;2023-02-04T10:32:28;3.72;;;1.10;;
43114;SDS011;28727;50.068;14.452;2023-02-04T10:35:02;4.00;;;1.70;;
43114;SDS011;28727;50.068;14.452;2023-02-04T10:37:34;3.45;;;1.27;;
43114;SDS011;28727;50.068;14.452;2023-02-04T10:40:21;2.88;;;1.30;;
43114;SDS011;28727;50.068;14.452;2023-02-04T10:42:57;2.13;;;1.20;;
43114;SDS011;28727;50.068;14.452;2023-02-04T10:45:31;3.00;;;1.30;;
43114;SDS011;28727;50.068;14.452;2023-02-04T10:48:06;3.13;;;1.27;;
43114;SDS011;28727;50.068;14.452;2023-02-04T10:50:53;2.35;;;1.50;;
43114;SDS011;28727;50.068;14.452;2023-02-04T10:53:27;2.97;;;1.40;;
43114;SDS011;28727;50.068;14.452;2023-02-04T10:56:19;3.22;;;1.50;;
43114;SDS011;28727;50.068;14.452;2023-02-04T10:58:53;3.72;;;1.40;;
43114;SDS011;28727;50.068;14.452;2023-02-04T11:01:25;5.13;;;2.75;;
43114;SDS011;28727;50.068;14.452;2023-02-04T11:03:59;1.88;;;1.20;;
43114;SDS011;28727;50.068;14.452;2023-02-04T11:06:31;4.63;;;1.63;;
43114;SDS011;28727;50.068;14.452;2023-02-04T11:09:04;2.03;;;1.20;;
43114;SDS011;28727;50.068;14.452;2023-02-04T11:11:36;1.95;;;1.10;;
43114;SDS011;28727;50.068;14.452;2023-02-04T11:14:20;4.43;;;1.38;;
43114;SDS011;28727;50.068;14.452;2023-02-04T11:16:54;2.20;;;1.20;;
43114;SDS011;28727;50.068;14.452;2023-02-04T11:19:37;2.45;;;1.27;;
43114;SDS011;28727;50.068;14.452;2023-02-04T11:25:30;4.32;;;1.30;;
43114;SDS011;28727;50.068;14.452;2023-02-04T11:28:12;3.85;;;1.50;;
43114;SDS011;28727;50.068;14.452;2023-02-04T11:30:57;2.03;;;1.23;;
43114;SDS011;28727;50.068;14.452;2023-02-04T11:33:36;2.75;;;1.35;;
43114;SDS011;28727;50.068;14.452;2023-02-04T11:36:15;1.73;;;1.38;;
43114;SDS011;28727;50.068;14.452;2023-02-04T11:38:48;4.30;;;1.30;;
43114;SDS011;28727;50.068;14.452;2023-02-04T11:44:02;3.63;;;1.50;;
43114;SDS011;28727;50.068;14.452;2023-02-04T11:46:33;3.15;;;1.30;;
43114;SDS011;28727;50.068;14.452;2023-02-04T11:49:08;2.00;;;1.30;;
43114;SDS011;28727;50.068;14.452;2023-02-04T11:52:13;3.58;;;1.45;;
43114;SDS011;28727;50.068;14.452;2023-02-04T11:54:51;3.38;;;1.30;;
43114;SDS011;28727;50.068;14.452;2023-02-04T11:57:24;4.60;;;1.23;;
43114;SDS011;28727;50.068;14.452;2023-02-04T11:59:56;2.95;;;1.30;;
43114;SDS011;28727;50.068;14.452;2023-02-04T12:02:40;3.70;;;1.13;;
43114;SDS011;28727;50.068;14.452;2023-02-04T12:05:16;3.38;;;1.10;;
43114;SDS011;28727;50.068;14.452;2023-02-04T12:07:50;2.25;;;1.10;;
43114;SDS011;28727;50.068;14.452;2023-02-04T12:10:25;3.25;;;1.40;;
43114;SDS011;28727;50.068;14.452;2023-02-04T12:12:57;4.88;;;1.50;;
43114;SDS011;28727;50.068;14.452;2023-02-04T12:15:34;3.83;;;1.40;;
43114;SDS011;28727;50.068;14.452;2023-02-04T12:18:10;3.45;;;1.20;;
43114;SDS011;28727;50.068;14.452;2023-02-04T12:20:46;3.72;;;1.30;;
43114;SDS011;28727;50.068;14.452;2023-02-04T12:23:17;2.13;;;1.00;;
43114;SDS011;28727;50.068;14.452;2023-02-04T12:25:49;4.00;;;1.42;;
43114;SDS011;28727;50.068;14.452;2023-02-04T12:30:58;6.18;;;1.40;;
43114;SDS011;28727;50.068;14.452;2023-02-04T12:33:30;3.20;;;1.30;;
43114;SDS011;28727;50.068;14.452;2023-02-04T12:36:02;4.07;;;1.50;;
43114;SDS011;28727;50.068;14.452;2023-02-04T12:38:37;4.38;;;1.90;;
43114;SDS011;28727;50.068;14.452;2023-02-04T12:43:41;4.15;;;2.03;;
43114;SDS011;28727;50.068;14.452;2023-02-04T12:46:13;3.47;;;2.00;;
43114;SDS011;28727;50.068;14.452;2023-02-04T12:48:45;6.35;;;1.50;;
43114;SDS011;28727;50.068;14.452;2023-02-04T12:51:17;2.30;;;1.10;;
43114;SDS011;28727;50.068;14.452;2023-02-04T12:53:48;4.00;;;1.40;;
43114;SDS011;28727;50.068;14.452;2023-02-04T12:56:22;6.00;;;1.27;;
43114;SDS011;28727;50.068;14.452;2023-02-04T12:58:54;2.30;;;1.17;;
43114;SDS011;28727;50.068;14.452;2023-02-04T13:01:26;2.97;;;1.25;;
43114;SDS011;28727;50.068;14.452;2023-02-04T13:03:57;3.63;;;1.10;;
43114;SDS011;28727;50.068;14.452;2023-02-04T13:06:29;6.15;;;1.15;;
43114;SDS011;28727;50.068;14.452;2023-02-04T13:09:02;2.90;;;1.10;;
43114;SDS011;28727;50.068;14.452;2023-02-04T13:11:34;3.38;;;1.40;;
43114;SDS011;28727;50.068;14.452;2023-02-04T13:14:06;2.95;;;1.48;;
43114;SDS011;28727;50.068;14.452;2023-02-04T13:16:40;3.47;;;1.10;;
43114;SDS011;28727;50.068;14.452;2023-02-04T13:19:12;1.40;;;0.95;;
43114;SDS011;28727;50.068;14.452;2023-02-04T13:21:47;1.58;;;0.85;;
43114;SDS011;28727;50.068;14.452;2023-02-04T13:26:50;5.18;;;1.25;;
43114;SDS011;28727;50.068;14.452;2023-02-04T13:29:22;2.35;;;1.42;;
43114;SDS011;28727;50.068;14.452;2023-02-04T13:31:54;3.92;;;1.20;;
43114;SDS011;28727;50.068;14.452;2023-02-04T13:37:00;2.72;;;1.40;;
43114;SDS011;28727;50.068;14.452;2023-02-04T13:39:32;3.20;;;1.48;;
43114;SDS011;28727;50.068;14.452;2023-02-04T13:42:04;2.70;;;1.45;;
43114;SDS011;28727;50.068;14.452;2023-02-04T13:44:36;3.17;;;1.40;;
43114;SDS011;28727;50.068;14.452;2023-02-04T13:47:11;2.88;;;1.40;;
43114;SDS011;28727;50.068;14.452;2023-02-04T13:49:44;1.70;;;1.30;;
43114;SDS011;28727;50.068;14.452;2023-02-04T13:52:18;2.92;;;1.55;;
43114;SDS011;28727;50.068;14.452;2023-02-04T13:54:55;2.83;;;1.33;;
43114;SDS011;28727;50.068;14.452;2023-02-04T13:57:27;2.58;;;1.25;;
43114;SDS011;28727;50.068;14.452;2023-02-04T14:00:00;4.13;;;1.20;;
43114;SDS011;28727;50.068;14.452;2023-02-04T14:02:42;0.35;;;0.35;;
43114;SDS011;28727;50.068;14.452;2023-02-04T14:05:14;1.85;;;1.13;;
43114;SDS011;28727;50.068;14.452;2023-02-04T14:07:46;2.58;;;0.98;;
43114;SDS011;28727;50.068;14.452;2023-02-04T14:10:18;2.65;;;1.20;;
43114;SDS011;28727;50.068;14.452;2023-02-04T14:15:24;2.80;;;1.17;;
43114;SDS011;28727;50.068;14.452;2023-02-04T14:17:56;3.58;;;1.30;;
43114;SDS011;28727;50.068;14.452;2023-02-04T14:20:31;4.15;;;1.48;;
43114;SDS011;28727;50.068;14.452;2023-02-04T14:23:03;3.60;;;1.20;;
43114;SDS011;28727;50.068;14.452;2023-02-04T14:25:37;2.13;;;0.95;;
43114;SDS011;28727;50.068;14.452;2023-02-04T14:28:09;3.63;;;1.20;;
43114;SDS011;28727;50.068;14.452;2023-02-04T14:30:41;2.17;;;1.33;;
43114;SDS011;28727;50.068;14.452;2023-02-04T14:33:13;1.08;;;0.90;;
43114;SDS011;28727;50.068;14.452;2023-02-04T14:35:46;1.27;;;0.90;;
43114;SDS011;28727;50.068;14.452;2023-02-04T14:38:20;2.17;;;1.00;;
43114;SDS011;28727;50.068;14.452;2023-02-04T14:40:52;1.88;;;1.25;;
43114;SDS011;28727;50.068;14.452;2023-02-04T14:43:28;3.05;;;1.42;;
43114;SDS011;28727;50.068;14.452;2023-02-04T14:45:59;2.28;;;1.17;;
43114;SDS011;28727;50.068;14.452;2023-02-04T14:48:31;4.13;;;1.27;;
43114;SDS011;28727;50.068;14.452;2023-02-04T14:51:06;3.00;;;1.25;;
43114;SDS011;28727;50.068;14.452;2023-02-04T14:56:14;3.35;;;1.50;;
43114;SDS011;28727;50.068;14.452;2023-02-04T14:58:46;3.65;;;1.27;;
43114;SDS011;28727;50.068;14.452;2023-02-04T15:01:21;2.38;;;1.30;;
43114;SDS011;28727;50.068;14.452;2023-02-04T15:03:53;3.58;;;1.45;;
43114;SDS011;28727;50.068;14.452;2023-02-04T15:06:25;3.63;;;1.60;;
43114;SDS011;28727;50.068;14.452;2023-02-04T15:08:57;2.50;;;1.40;;
43114;SDS011;28727;50.068;14.452;2023-02-04T15:11:29;3.92;;;1.38;;
43114;SDS011;28727;50.068;14.452;2023-02-04T15:14:01;2.95;;;2.13;;
43114;SDS011;28727;50.068;14.452;2023-02-04T15:16:36;3.45;;;1.42;;
43114;SDS011;28727;50.068;14.452;2023-02-04T15:19:08;3.00;;;1.55;;
43114;SDS011;28727;50.068;14.452;2023-02-04T15:21:44;4.90;;;1.50;;
43114;SDS011;28727;50.068;14.452;2023-02-04T15:24:16;3.33;;;1.60;;
43114;SDS011;28727;50.068;14.452;2023-02-04T15:26:48;3.65;;;1.45;;
43114;SDS011;28727;50.068;14.452;2023-02-04T15:29:21;3.20;;;1.48;;
43114;SDS011;28727;50.068;14.452;2023-02-04T15:31:53;3.63;;;1.38;;
43114;SDS011;28727;50.068;14.452;2023-02-04T15:34:28;1.75;;;1.40;;
43114;SDS011;28727;50.068;14.452;2023-02-04T15:37:00;3.17;;;1.60;;
43114;SDS011;28727;50.068;14.452;2023-02-04T15:39:32;2.35;;;1.27;;
43114;SDS011;28727;50.068;14.452;2023-02-04T15:42:04;2.42;;;1.60;;
43114;SDS011;28727;50.068;14.452;2023-02-04T15:44:36;2.00;;;1.30;;
43114;SDS011;28727;50.068;14.452;2023-02-04T15:47:08;3.75;;;1.30;;
43114;SDS011;28727;50.068;14.452;2023-02-04T15:49:39;3.22;;;1.60;;